createdAt,value
2018-12-09T00:07:46.822Z,96235.57
2018-12-09T00:18:05.301Z,96204.97
2018-12-09T00:28:24.239Z,96172.59
2018-12-09T00:38:43.281Z,96156.86
2018-12-09T00:49:02.251Z,96121.23
2018-12-09T00:59:20.957Z,96102.04
2018-12-09T01:09:40.198Z,96086.70
2018-12-09T01:19:58.588Z,96064.25
2018-12-09T01:30:18.331Z,96067.80
2018-12-09T01:40:57.096Z,96066.66
2018-12-09T01:51:17.233Z,96054.16
2018-12-09T02:01:36.487Z,96046.97
2018-12-09T02:11:55.196Z,96039.63
2018-12-09T02:22:13.781Z,96041.83
2018-12-09T02:32:32.559Z,96004.20
2018-12-09T02:42:52.545Z,95990.90
2018-12-09T02:53:11.816Z,96031.77
2018-12-09T03:03:30.685Z,96058.52
2018-12-09T03:13:49.076Z,96018.69
2018-12-09T03:24:07.794Z,95950.77
2018-12-09T03:34:26.550Z,95896.74
2018-12-09T03:44:45.434Z,95843.23
2018-12-09T03:55:04.254Z,95822.83
2018-12-09T04:05:24.151Z,95801.89
2018-12-09T04:15:43.613Z,95796.39
2018-12-09T04:26:04.579Z,95802.23
2018-12-09T04:36:23.041Z,95795.61
2018-12-09T04:46:42.289Z,95775.81
2018-12-09T04:57:01.272Z,95753.59
2018-12-09T05:07:20.696Z,95720.59
2018-12-09T05:17:39.831Z,95698.12
2018-12-09T05:27:57.925Z,95720.19
2018-12-09T05:38:16.774Z,95729.43
2018-12-09T05:48:35.882Z,95717.78
2018-12-09T05:58:54.765Z,95731.70
2018-12-09T06:09:14.466Z,95752.59
2018-12-09T06:19:32.791Z,95798.65
2018-12-09T06:29:51.708Z,95794.91
2018-12-09T06:40:10.183Z,95785.03
2018-12-09T06:50:29.040Z,95784.48
2018-12-09T07:00:47.873Z,95796.09
2018-12-09T07:11:06.999Z,95791.36
2018-12-09T07:21:25.768Z,95820.11
2018-12-09T07:31:44.465Z,95947.95
2018-12-09T07:42:03.489Z,95956.59
2018-12-09T07:52:25.093Z,95916.09
2018-12-09T08:02:43.614Z,95883.28
2018-12-09T08:13:03.314Z,95880.16
2018-12-09T08:23:21.614Z,95853.00
2018-12-09T08:33:42.059Z,95833.39
2018-12-09T08:44:01.214Z,95856.02
2018-12-09T08:54:19.960Z,95878.80
2018-12-09T09:04:39.370Z,95891.25
2018-12-09T09:14:58.266Z,95912.80
2018-12-09T09:25:17.146Z,95940.80
2018-12-09T09:35:36.419Z,95939.28
2018-12-09T09:45:55.158Z,95940.45
2018-12-09T09:56:13.847Z,95955.22
2018-12-09T10:06:32.898Z,95929.69
2018-12-09T10:16:52.401Z,95907.23
2018-12-09T10:27:11.832Z,95894.83
2018-12-09T10:37:30.594Z,95877.72
2018-12-09T10:47:49.178Z,95873.01
2018-12-09T10:58:09.425Z,95883.23
2018-12-09T11:08:28.557Z,95894.48
2018-12-09T11:18:47.942Z,95907.73
2018-12-09T11:29:06.352Z,95896.40
2018-12-09T11:39:25.783Z,95908.80
2018-12-09T11:49:45.488Z,95914.52
2018-12-09T12:00:05.537Z,95924.08
2018-12-09T12:10:24.524Z,95936.84
2018-12-09T12:20:43.702Z,95929.85
2018-12-09T12:31:04.054Z,95991.14
2018-12-09T12:41:22.320Z,95932.26
2018-12-09T12:51:41.940Z,95917.63
2018-12-09T13:02:01.765Z,95933.03
2018-12-09T13:12:20.905Z,95929.13
2018-12-09T13:22:39.603Z,95939.97
2018-12-09T13:33:00.605Z,95929.31
2018-12-09T13:43:21.223Z,95936.50
2018-12-09T13:53:42.006Z,95905.55
2018-12-09T14:04:03.970Z,95898.05
2018-12-09T14:14:23.507Z,95891.70
2018-12-09T14:24:42.944Z,95924.71
2018-12-09T14:35:03.760Z,95930.09
2018-12-09T14:45:23.246Z,95927.38
2018-12-09T14:55:43.925Z,95947.41
2018-12-09T15:06:03.610Z,95947.16
2018-12-09T15:16:23.275Z,95940.82
2018-12-09T15:26:43.216Z,95944.61
2018-12-09T15:37:03.898Z,95935.19
2018-12-09T15:47:23.272Z,95945.48
2018-12-09T15:57:44.041Z,95971.25
2018-12-09T16:08:04.343Z,95992.00
2018-12-09T16:18:23.578Z,95985.98
2018-12-09T16:28:44.670Z,95972.31
2018-12-09T16:39:06.407Z,95942.27
2018-12-09T16:49:26.785Z,95950.98
2018-12-09T16:59:46.843Z,95985.09
2018-12-09T17:10:07.215Z,95963.44
2018-12-09T17:20:27.189Z,95990.75
2018-12-09T17:30:47.464Z,95995.76
2018-12-09T17:41:06.735Z,96017.08
2018-12-09T17:51:26.086Z,96010.19
2018-12-09T18:01:48.006Z,96008.89
2018-12-09T18:12:08.843Z,95992.56
2018-12-09T18:22:29.831Z,96003.94
2018-12-09T18:32:51.888Z,96041.34
2018-12-09T18:43:16.413Z,96038.22
2018-12-09T18:54:19.510Z,96034.48
2018-12-09T19:04:38.887Z,96055.94
2018-12-09T19:15:00.335Z,96077.31
2018-12-09T19:25:22.082Z,96053.52
2018-12-09T19:35:46.177Z,96075.39
2018-12-09T19:46:08.536Z,96087.92
2018-12-09T19:56:29.679Z,96087.44
2018-12-09T20:06:51.655Z,96091.34
2018-12-09T20:17:11.877Z,96083.84
2018-12-09T20:27:32.353Z,96107.43
2018-12-09T20:37:54.577Z,96109.25
2018-12-09T20:48:17.974Z,96118.73
2018-12-09T20:58:38.646Z,96111.75
2018-12-09T21:08:59.838Z,96135.84
2018-12-09T21:19:23.926Z,96145.63
2018-12-09T21:29:43.516Z,96151.17
2018-12-09T21:40:02.398Z,96164.89
2018-12-09T21:50:23.086Z,96192.57
2018-12-09T22:00:42.322Z,96198.05
2018-12-09T22:11:03.056Z,96220.01
2018-12-09T22:21:24.568Z,96236.02
2018-12-09T22:31:46.210Z,96273.96
2018-12-09T22:42:06.584Z,96262.23
2018-12-09T22:52:27.348Z,96276.39
2018-12-09T23:03:05.777Z,96290.90
2018-12-09T23:13:25.824Z,96329.47
2018-12-09T23:23:45.284Z,96362.33
2018-12-09T23:34:05.258Z,96377.15
2018-12-09T23:44:24.732Z,96396.55
2018-12-09T23:54:44.135Z,96401.73
